createdAt,value
2022-08-26T00:01:35.922Z,29.23
2022-08-26T00:07:37.747Z,36.90
2022-08-26T00:13:40.234Z,33.28
2022-08-26T00:19:49.929Z,35.92
2022-08-26T00:25:54.759Z,37.38
2022-08-26T00:31:58.623Z,42.55
2022-08-26T00:38:01.266Z,32.40
2022-08-26T00:44:04.349Z,38.47
2022-08-26T00:50:10.256Z,36.63
2022-08-26T00:56:26.570Z,40.75
2022-08-26T01:02:28.955Z,40.33
2022-08-26T01:08:31.348Z,34.80
2022-08-26T01:14:36.733Z,32.20
2022-08-26T01:20:59.730Z,27.35
2022-08-26T01:27:06.989Z,34.28
2022-08-26T01:33:15.030Z,31.20
2022-08-26T01:45:25.111Z,31.88
2022-08-26T01:51:28.375Z,25.52
2022-08-26T01:57:31.611Z,22.27
2022-08-26T02:03:38.732Z,32.42
2022-08-26T02:09:44.621Z,25.45
2022-08-26T02:15:47.669Z,24.10
2022-08-26T02:21:51.976Z,37.38
2022-08-26T02:27:56.596Z,32.58
2022-08-26T02:34:13.328Z,31.63
2022-08-26T02:40:21.481Z,31.98
2022-08-26T02:46:29.812Z,26.90
2022-08-26T02:52:31.924Z,34.95
2022-08-26T02:58:34.350Z,25.80
2022-08-26T03:04:36.725Z,33.65
2022-08-26T03:10:41.349Z,34.55
2022-08-26T03:16:43.239Z,31.35
2022-08-26T03:22:45.894Z,43.78
2022-08-26T03:29:06.509Z,37.95
2022-08-26T03:35:08.823Z,52.50
2022-08-26T03:41:12.280Z,39.50
2022-08-26T03:47:14.017Z,43.83
2022-08-26T03:53:15.777Z,41.08
2022-08-26T03:59:21.651Z,31.33
2022-08-26T04:05:23.626Z,34.85
2022-08-26T04:11:34.104Z,35.10
2022-08-26T04:17:37.118Z,35.55
2022-08-26T04:23:47.339Z,30.58
2022-08-26T04:29:53.572Z,33.17
2022-08-26T04:36:09.025Z,41.10
2022-08-26T04:42:10.934Z,33.38
2022-08-26T04:48:12.819Z,29.92
2022-08-26T04:54:19.242Z,35.97
2022-08-26T05:00:21.962Z,22.67
2022-08-26T05:06:24.122Z,34.13
2022-08-26T05:12:27.781Z,30.30
2022-08-26T05:18:30.236Z,29.42
2022-08-26T05:24:31.953Z,41.65
2022-08-26T05:30:33.938Z,28.85
2022-08-26T05:36:37.007Z,32.90
2022-08-26T05:42:39.565Z,28.60
2022-08-26T05:48:41.387Z,35.22
2022-08-26T05:54:46.227Z,34.03
2022-08-26T06:01:12.250Z,32.60
2022-08-26T06:07:14.149Z,35.83
2022-08-26T06:13:18.354Z,42.72
2022-08-26T06:19:24.468Z,41.72
2022-08-26T06:25:38.334Z,30.05
2022-08-26T06:31:40.153Z,25.35
2022-08-26T06:37:42.811Z,40.33
2022-08-26T06:43:44.556Z,44.58
2022-08-26T06:49:46.426Z,32.97
2022-08-26T06:55:48.182Z,41.08
2022-08-26T07:01:54.619Z,43.08
2022-08-26T07:07:57.965Z,42.58
2022-08-26T07:13:59.837Z,37.97
2022-08-26T07:20:03.455Z,40.55
2022-08-26T07:26:15.239Z,39.30
2022-08-26T07:32:20.391Z,37.25
2022-08-26T07:38:24.734Z,37.08
2022-08-26T07:44:27.314Z,36.65
2022-08-26T07:50:50.373Z,42.28
2022-08-26T07:56:51.077Z,39.17
2022-08-26T08:02:53.681Z,45.00
2022-08-26T08:08:58.286Z,35.20
2022-08-26T08:15:00.064Z,31.45
2022-08-26T08:21:21.298Z,34.58
2022-08-26T08:27:25.785Z,35.45
2022-08-26T08:33:30.191Z,25.92
2022-08-26T08:39:32.838Z,26.45
2022-08-26T08:45:39.259Z,30.35
2022-08-26T08:51:43.721Z,27.57
2022-08-26T08:58:02.122Z,24.55
2022-08-26T09:04:27.932Z,26.80
2022-08-26T09:10:36.249Z,34.22
2022-08-26T09:17:07.848Z,27.25
2022-08-26T09:23:11.076Z,24.30
2022-08-26T09:35:32.922Z,21.73
2022-08-26T09:41:36.941Z,30.58
2022-08-26T09:47:47.896Z,27.83
2022-08-26T09:53:58.453Z,24.55
2022-08-26T10:00:03.571Z,23.02
2022-08-26T10:06:17.415Z,30.17
2022-08-26T10:12:21.661Z,21.92
2022-08-26T10:18:33.889Z,23.38
2022-08-26T10:24:51.917Z,23.77
2022-08-26T10:31:27.493Z,20.02
2022-08-26T10:37:58.068Z,23.02
2022-08-26T10:44:01.733Z,26.98
2022-08-26T10:50:05.920Z,21.13
2022-08-26T10:56:18.861Z,22.92
2022-08-26T11:02:35.895Z,23.45
2022-08-26T11:08:49.815Z,24.40
2022-08-26T11:14:53.306Z,20.38
2022-08-26T11:20:56.077Z,19.92
2022-08-26T11:26:58.029Z,19.90
2022-08-26T11:33:00.120Z,18.42
2022-08-26T11:39:04.674Z,19.50
2022-08-26T11:45:26.958Z,11.00
2022-08-26T11:51:31.612Z,17.20
2022-08-26T11:57:40.875Z,14.55
2022-08-26T12:03:52.027Z,13.52
2022-08-26T12:10:00.560Z,21.35
2022-08-26T12:16:04.647Z,14.52
2022-08-26T12:22:26.815Z,13.65
2022-08-26T12:28:30.139Z,13.75
2022-08-26T12:34:31.983Z,10.00
2022-08-26T12:40:43.262Z,11.93
2022-08-26T12:46:49.204Z,11.35
2022-08-26T12:52:51.437Z,25.77
2022-08-26T12:59:20.756Z,23.27
2022-08-26T13:05:28.829Z,21.13
2022-08-26T13:11:35.322Z,31.92
2022-08-26T13:17:37.675Z,18.17
2022-08-26T13:23:42.424Z,15.68
2022-08-26T13:29:44.376Z,16.80
2022-08-26T13:35:47.387Z,15.00
2022-08-26T13:41:49.477Z,17.48
2022-08-26T13:47:51.287Z,13.02
2022-08-26T13:53:54.084Z,18.08
2022-08-26T13:59:58.832Z,23.52
2022-08-26T14:06:00.568Z,19.42
2022-08-26T14:12:02.835Z,28.17
2022-08-26T14:18:07.781Z,20.70
2022-08-26T14:24:10.500Z,27.65
2022-08-26T14:30:12.964Z,33.22
2022-08-26T14:36:31.848Z,23.33
2022-08-26T14:42:34.689Z,18.20
2022-08-26T14:48:36.395Z,18.75
2022-08-26T14:54:38.146Z,17.55
2022-08-26T15:00:39.951Z,18.40
2022-08-26T15:06:44.346Z,17.23
2022-08-26T15:12:46.532Z,12.68
2022-08-26T15:18:49.421Z,9.20
2022-08-26T15:24:51.864Z,12.52
2022-08-26T15:30:55.789Z,8.27
2022-08-26T15:36:57.761Z,6.57
2022-08-26T15:43:17.818Z,7.28
2022-08-26T15:49:20.085Z,9.93
2022-08-26T15:55:23.377Z,8.95
2022-08-26T16:01:27.500Z,14.70
2022-08-26T16:07:31.164Z,12.93
2022-08-26T16:13:39.528Z,11.52
2022-08-26T16:19:41.550Z,17.45
2022-08-26T16:25:43.429Z,11.77
2022-08-26T16:31:45.304Z,11.85
2022-08-26T16:37:47.373Z,23.40
2022-08-26T16:43:49.386Z,17.95
2022-08-26T16:49:51.248Z,13.80
2022-08-26T16:55:53.022Z,21.85
2022-08-26T17:01:54.859Z,16.45
2022-08-26T17:07:58.754Z,16.20
2022-08-26T17:14:00.555Z,21.27
2022-08-26T17:20:09.488Z,16.85
2022-08-26T17:26:12.339Z,18.83
2022-08-26T17:32:14.090Z,19.88
2022-08-26T17:38:15.793Z,18.42
2022-08-26T17:44:17.701Z,24.73
2022-08-26T17:50:21.126Z,24.92
2022-08-26T17:56:28.028Z,21.73
2022-08-26T18:08:37.338Z,12.90
2022-08-26T18:14:39.053Z,15.55
2022-08-26T18:20:42.578Z,6.57
2022-08-26T18:26:48.759Z,8.25
2022-08-26T18:32:51.769Z,7.60
2022-08-26T18:38:54.090Z,9.65
2022-08-26T18:44:56.024Z,5.70
2022-08-26T18:51:00.042Z,9.48
2022-08-26T18:57:02.775Z,9.57
2022-08-26T19:03:04.667Z,12.05
2022-08-26T19:09:11.806Z,9.63
2022-08-26T19:15:16.009Z,11.50
2022-08-26T19:21:18.143Z,11.45
2022-08-26T19:27:19.872Z,9.70
2022-08-26T19:33:21.956Z,11.60
2022-08-26T19:39:24.600Z,12.07
2022-08-26T19:45:28.097Z,14.80
2022-08-26T19:51:31.794Z,11.18
2022-08-26T19:57:34.621Z,11.05
2022-08-26T20:03:37.077Z,10.10
2022-08-26T20:09:39.103Z,9.15
2022-08-26T20:15:40.966Z,14.13
2022-08-26T20:21:42.957Z,12.40
2022-08-26T20:27:44.826Z,12.80
2022-08-26T20:33:46.984Z,12.65
2022-08-26T20:39:49.078Z,10.13
2022-08-26T20:45:50.926Z,12.23
2022-08-26T20:51:53.061Z,16.30
2022-08-26T20:57:54.810Z,20.02
2022-08-26T21:03:57.040Z,18.83
2022-08-26T21:09:58.760Z,16.48
2022-08-26T21:16:01.265Z,26.88
2022-08-26T21:22:03.191Z,28.10
2022-08-26T21:28:05.378Z,34.35
2022-08-26T21:34:07.241Z,25.73
2022-08-26T21:40:10.071Z,27.08
2022-08-26T21:46:14.643Z,38.95
2022-08-26T21:52:17.285Z,31.67
2022-08-26T21:58:19.005Z,18.38
2022-08-26T22:04:20.886Z,11.40
2022-08-26T22:10:22.692Z,12.88
2022-08-26T22:16:26.808Z,13.65
2022-08-26T22:22:29.175Z,14.40
2022-08-26T22:28:31.756Z,13.75
2022-08-26T22:34:33.905Z,9.50
2022-08-26T22:40:36.915Z,12.10
2022-08-26T22:46:41.398Z,12.18
2022-08-26T22:52:43.128Z,12.75
2022-08-26T22:58:45.449Z,9.30
2022-08-26T23:04:47.276Z,9.55
2022-08-26T23:10:49.026Z,12.65
2022-08-26T23:16:51.690Z,18.15
2022-08-26T23:22:54.504Z,16.58
2022-08-26T23:28:56.276Z,17.85
2022-08-26T23:35:00.921Z,18.33
2022-08-26T23:41:02.676Z,21.48
2022-08-26T23:47:05.035Z,27.02
2022-08-26T23:53:08.532Z,24.92
2022-08-26T23:59:10.279Z,29.02
